createdAt,value
2018-03-07T00:00:11.913Z,107.30
2018-03-07T00:02:38.647Z,102.25
2018-03-07T00:05:05.329Z,121.45
2018-03-07T00:07:32.020Z,131.60
2018-03-07T00:09:58.761Z,119.55
2018-03-07T00:12:25.508Z,119.28
2018-03-07T00:14:52.248Z,115.75
2018-03-07T00:17:18.997Z,117.28
2018-03-07T00:19:45.676Z,110.25
2018-03-07T00:22:14.092Z,104.65
2018-03-07T00:24:40.753Z,120.65
2018-03-07T00:27:07.433Z,110.95
2018-03-07T00:29:34.095Z,120.65
2018-03-07T00:32:00.873Z,121.30
2018-03-07T00:34:27.546Z,105.75
2018-03-07T00:36:54.200Z,117.93
2018-03-07T00:39:20.861Z,111.20
2018-03-07T00:41:47.637Z,128.50
2018-03-07T00:44:14.373Z,106.25
2018-03-07T00:46:41.125Z,109.93
2018-03-07T00:49:07.797Z,97.90
2018-03-07T00:51:34.493Z,120.28
2018-03-07T00:54:01.236Z,110.00
2018-03-07T00:56:27.921Z,114.95
2018-03-07T00:58:54.576Z,97.68
2018-03-07T01:01:21.255Z,115.07
2018-03-07T01:03:47.937Z,125.65
2018-03-07T01:06:14.587Z,99.95
2018-03-07T01:08:41.277Z,110.15
2018-03-07T01:11:07.949Z,106.47
2018-03-07T01:13:34.656Z,122.18
2018-03-07T01:16:01.316Z,118.00
2018-03-07T01:18:28.036Z,125.97
2018-03-07T01:20:54.694Z,132.23
2018-03-07T01:23:21.523Z,124.28
2018-03-07T01:25:48.262Z,130.15
2018-03-07T01:28:15.004Z,120.45
2018-03-07T01:30:41.660Z,114.07
2018-03-07T01:33:08.389Z,111.75
2018-03-07T01:35:35.127Z,119.85
2018-03-07T01:38:01.793Z,130.00
2018-03-07T01:40:28.473Z,136.52
2018-03-07T01:42:55.249Z,122.07
2018-03-07T01:45:21.924Z,119.82
2018-03-07T01:47:48.634Z,114.85
2018-03-07T01:50:15.383Z,125.62
2018-03-07T01:52:42.045Z,118.53
2018-03-07T01:55:08.748Z,116.20
2018-03-07T01:57:35.498Z,115.07
2018-03-07T02:00:02.185Z,118.05
2018-03-07T02:02:28.977Z,121.65
2018-03-07T02:04:55.641Z,112.82
2018-03-07T02:07:22.302Z,118.93
2018-03-07T02:09:48.993Z,117.72
2018-03-07T02:12:15.734Z,107.63
2018-03-07T02:14:42.393Z,125.57
2018-03-07T02:17:09.115Z,110.35
2018-03-07T02:19:35.781Z,118.28
2018-03-07T02:22:02.462Z,121.20
2018-03-07T02:24:29.141Z,123.07
2018-03-07T02:26:55.880Z,128.07
2018-03-07T02:29:22.622Z,115.18
2018-03-07T02:31:49.297Z,119.13
2018-03-07T02:34:15.971Z,112.82
2018-03-07T02:36:42.744Z,119.20
2018-03-07T02:39:09.424Z,113.80
2018-03-07T02:41:36.085Z,112.47
2018-03-07T02:44:02.749Z,110.53
2018-03-07T02:46:29.428Z,114.40
2018-03-07T02:48:56.105Z,108.72
2018-03-07T02:51:22.765Z,128.07
2018-03-07T02:53:49.571Z,132.02
2018-03-07T02:56:16.265Z,114.20
2018-03-07T02:58:43.005Z,120.28
2018-03-07T03:01:09.748Z,117.97
2018-03-07T03:03:36.405Z,109.22
2018-03-07T03:06:03.135Z,114.75
2018-03-07T03:08:29.874Z,100.82
2018-03-07T03:10:56.532Z,120.80
2018-03-07T03:13:23.255Z,114.35
2018-03-07T03:15:49.929Z,108.28
2018-03-07T03:18:16.589Z,116.68
2018-03-07T03:20:43.268Z,104.15
2018-03-07T03:23:09.942Z,111.10
2018-03-07T03:25:36.645Z,115.32
2018-03-07T03:28:03.399Z,123.32
2018-03-07T03:30:30.073Z,110.00
2018-03-07T03:32:56.771Z,118.15
2018-03-07T03:35:23.445Z,103.28
2018-03-07T03:37:50.153Z,129.75
2018-03-07T03:40:16.818Z,121.05
2018-03-07T03:42:43.536Z,118.03
2018-03-07T03:45:10.272Z,119.60
2018-03-07T03:47:36.992Z,113.45
2018-03-07T03:50:03.650Z,115.70
2018-03-07T03:52:30.333Z,120.75
2018-03-07T03:54:56.997Z,118.50
2018-03-07T03:57:23.653Z,124.32
2018-03-07T03:59:50.333Z,127.00
2018-03-07T04:02:16.991Z,116.15
2018-03-07T04:04:43.648Z,119.55
2018-03-07T04:07:10.435Z,115.30
2018-03-07T04:09:37.092Z,125.90
2018-03-07T04:12:03.757Z,108.12
2018-03-07T04:14:30.436Z,122.85
2018-03-07T04:16:57.101Z,111.10
2018-03-07T04:19:23.761Z,105.03
2018-03-07T04:21:50.436Z,102.40
2018-03-07T04:24:17.096Z,114.35
2018-03-07T04:26:43.958Z,122.40
2018-03-07T04:29:10.659Z,120.37
2018-03-07T04:31:37.344Z,111.88
2018-03-07T04:34:04.009Z,109.70
2018-03-07T04:36:30.680Z,110.43
2018-03-07T04:38:57.337Z,112.97
2018-03-07T04:41:23.996Z,113.75
2018-03-07T04:43:50.677Z,100.57
2018-03-07T04:46:17.387Z,101.90
2018-03-07T04:48:44.044Z,98.05
2018-03-07T04:51:10.758Z,90.97
2018-03-07T04:53:37.503Z,93.37
2018-03-07T04:56:04.345Z,100.85
2018-03-07T04:58:31.024Z,104.40
2018-03-07T05:00:57.684Z,96.43
2018-03-07T05:03:24.342Z,95.22
2018-03-07T05:05:51.021Z,102.87
2018-03-07T05:08:17.677Z,97.03
2018-03-07T05:10:44.385Z,109.65
2018-03-07T05:13:11.056Z,99.13
2018-03-07T05:15:37.712Z,107.25
2018-03-07T05:18:04.405Z,98.82
2018-03-07T05:20:31.077Z,113.05
2018-03-07T05:22:57.789Z,91.90
2018-03-07T05:25:24.444Z,94.82
2018-03-07T05:27:51.120Z,103.25
2018-03-07T05:30:17.781Z,100.12
2018-03-07T05:32:44.442Z,97.95
2018-03-07T05:35:11.113Z,99.32
2018-03-07T05:37:37.769Z,88.00
2018-03-07T05:40:04.464Z,89.03
2018-03-07T05:42:31.142Z,97.05
2018-03-07T05:44:57.845Z,90.43
2018-03-07T05:47:24.585Z,97.22
2018-03-07T05:49:51.257Z,97.18
2018-03-07T05:52:17.914Z,93.18
2018-03-07T05:54:44.604Z,92.70
2018-03-07T05:57:11.345Z,86.72
2018-03-07T05:59:38.086Z,76.85
2018-03-07T06:02:04.740Z,81.70
2018-03-07T06:04:31.425Z,95.80
2018-03-07T06:06:58.125Z,72.57
2018-03-07T06:09:24.854Z,84.13
2018-03-07T06:11:51.542Z,80.53
2018-03-07T06:14:18.228Z,80.55
2018-03-07T06:16:44.888Z,80.85
2018-03-07T06:19:11.561Z,85.45
2018-03-07T06:21:38.222Z,84.72
2018-03-07T06:24:04.876Z,74.62
2018-03-07T06:26:31.553Z,137.95
2018-03-07T06:28:58.204Z,77.55
2018-03-07T06:31:24.900Z,72.50
2018-03-07T06:33:51.580Z,75.80
2018-03-07T06:36:18.248Z,86.35
2018-03-07T06:38:44.932Z,78.78
2018-03-07T06:41:11.628Z,80.72
2018-03-07T06:43:38.304Z,85.07
2018-03-07T06:46:05.045Z,68.10
2018-03-07T06:48:31.722Z,69.03
2018-03-07T06:50:58.435Z,67.12
2018-03-07T06:53:25.171Z,67.62
2018-03-07T06:55:51.857Z,65.32
2018-03-07T06:58:18.516Z,65.68
2018-03-07T07:00:45.171Z,76.55
2018-03-07T07:03:11.902Z,100.25
2018-03-07T07:05:38.561Z,89.35
2018-03-07T07:08:05.319Z,69.68
2018-03-07T07:10:32.060Z,80.85
2018-03-07T07:12:58.796Z,79.18
2018-03-07T07:15:25.473Z,74.40
2018-03-07T07:17:52.148Z,68.50
2018-03-07T07:20:18.814Z,59.85
2018-03-07T07:22:45.483Z,63.15
2018-03-07T07:25:12.213Z,54.45
2018-03-07T07:27:38.865Z,51.92
2018-03-07T07:30:05.583Z,53.87
2018-03-07T07:32:32.265Z,61.92
2018-03-07T07:34:58.920Z,56.67
2018-03-07T07:37:25.648Z,50.70
2018-03-07T07:39:52.272Z,49.72
2018-03-07T07:42:18.934Z,50.72
2018-03-07T07:44:45.620Z,50.88
2018-03-07T07:47:12.383Z,47.92
2018-03-07T07:49:39.041Z,46.65
2018-03-07T07:52:05.990Z,51.00
2018-03-07T07:54:32.662Z,41.28
2018-03-07T07:56:59.338Z,42.65
2018-03-07T07:59:25.996Z,35.92
2018-03-07T08:01:52.675Z,42.47
2018-03-07T08:04:19.449Z,42.70
2018-03-07T08:06:46.188Z,40.42
2018-03-07T08:09:12.929Z,37.25
2018-03-07T08:11:39.672Z,41.85
2018-03-07T08:14:06.418Z,42.15
2018-03-07T08:16:33.089Z,39.63
2018-03-07T08:18:59.748Z,37.80
2018-03-07T08:21:26.423Z,40.50
2018-03-07T08:23:53.100Z,36.72
2018-03-07T08:26:19.760Z,43.03
2018-03-07T08:28:46.453Z,36.67
2018-03-07T08:31:13.194Z,37.17
2018-03-07T08:33:40.039Z,35.13
2018-03-07T08:36:06.785Z,36.05
2018-03-07T08:38:33.521Z,35.45
2018-03-07T08:41:00.188Z,37.15
2018-03-07T08:43:26.845Z,36.40
2018-03-07T08:45:53.535Z,35.20
2018-03-07T08:48:20.190Z,31.45
2018-03-07T08:50:46.848Z,32.33
2018-03-07T08:53:13.516Z,35.95
2018-03-07T08:55:40.164Z,32.63
2018-03-07T08:58:06.816Z,29.87
2018-03-07T09:00:33.496Z,31.00
2018-03-07T09:03:00.165Z,28.52
2018-03-07T09:05:26.858Z,29.83
2018-03-07T09:07:53.603Z,29.20
2018-03-07T09:10:20.355Z,24.33
2018-03-07T09:12:47.089Z,23.30
2018-03-07T09:15:13.765Z,27.67
2018-03-07T09:17:40.420Z,22.15
2018-03-07T09:20:07.081Z,24.00
2018-03-07T09:22:33.845Z,25.83
2018-03-07T09:25:00.585Z,28.12
2018-03-07T09:27:27.326Z,22.10
2018-03-07T09:29:54.000Z,19.90
2018-03-07T09:32:20.708Z,15.38
2018-03-07T09:34:47.365Z,16.60
2018-03-07T09:37:14.088Z,16.95
2018-03-07T09:39:40.736Z,17.40
2018-03-07T09:42:07.389Z,22.50
2018-03-07T09:44:34.105Z,14.87
2018-03-07T09:47:00.770Z,15.23
2018-03-07T09:49:27.429Z,16.00
2018-03-07T09:51:54.128Z,14.57
2018-03-07T09:54:20.790Z,11.90
2018-03-07T09:56:47.453Z,12.05
2018-03-07T09:59:14.129Z,12.93
2018-03-07T10:01:40.788Z,12.25
2018-03-07T10:04:07.437Z,14.30
2018-03-07T10:06:34.169Z,14.38
2018-03-07T10:09:00.824Z,15.75
2018-03-07T10:11:27.549Z,16.92
2018-03-07T10:13:54.221Z,18.27
2018-03-07T10:16:20.884Z,18.92
2018-03-07T10:18:47.671Z,15.88
2018-03-07T10:21:14.410Z,16.67
2018-03-07T10:23:41.068Z,19.67
2018-03-07T10:26:07.729Z,16.95
2018-03-07T10:28:34.482Z,16.80
2018-03-07T10:31:01.173Z,19.12
2018-03-07T10:33:27.844Z,15.20
2018-03-07T10:35:54.512Z,17.40
2018-03-07T10:38:21.168Z,16.50
2018-03-07T10:40:47.936Z,16.05
2018-03-07T10:43:14.676Z,16.42
2018-03-07T10:45:41.334Z,15.60
2018-03-07T10:48:07.993Z,14.57
2018-03-07T10:50:34.666Z,14.55
2018-03-07T10:53:01.436Z,15.27
2018-03-07T10:55:28.178Z,13.48
2018-03-07T10:57:55.024Z,12.05
2018-03-07T11:00:27.427Z,12.35
2018-03-07T11:02:54.114Z,12.88
2018-03-07T11:05:20.871Z,12.27
2018-03-07T11:07:47.524Z,9.50
2018-03-07T11:10:14.197Z,12.70
2018-03-07T11:12:40.906Z,10.15
2018-03-07T11:15:07.557Z,9.98
2018-03-07T11:17:34.220Z,12.40
2018-03-07T11:20:00.878Z,11.65
2018-03-07T11:22:27.529Z,10.23
2018-03-07T11:24:54.187Z,8.48
2018-03-07T11:27:20.840Z,8.00
2018-03-07T11:29:47.576Z,7.30
2018-03-07T11:32:14.244Z,6.37
2018-03-07T11:34:40.953Z,6.12
2018-03-07T11:37:07.605Z,6.57
2018-03-07T11:39:34.344Z,6.65
2018-03-07T11:42:01.083Z,9.80
2018-03-07T11:44:27.733Z,5.22
2018-03-07T11:46:54.462Z,6.45
2018-03-07T11:49:21.197Z,6.32
2018-03-07T11:51:47.841Z,7.15
2018-03-07T11:54:14.578Z,8.02
2018-03-07T11:56:41.325Z,7.47
2018-03-07T11:59:07.977Z,14.82
2018-03-07T12:01:34.706Z,9.13
2018-03-07T12:04:01.445Z,10.98
2018-03-07T12:06:28.189Z,7.80
2018-03-07T12:08:55.032Z,8.00
2018-03-07T12:11:21.679Z,7.07
2018-03-07T12:13:48.417Z,7.05
2018-03-07T12:16:15.149Z,8.57
2018-03-07T12:18:41.797Z,7.95
2018-03-07T12:21:08.440Z,6.20
2018-03-07T12:23:35.173Z,7.62
2018-03-07T12:26:01.909Z,6.80
2018-03-07T12:28:28.657Z,7.03
2018-03-07T12:30:55.342Z,7.55
2018-03-07T12:33:22.039Z,6.30
2018-03-07T12:35:48.689Z,7.80
2018-03-07T12:38:15.417Z,7.90
2018-03-07T12:40:42.152Z,8.65
2018-03-07T12:43:08.797Z,9.63
2018-03-07T12:45:35.532Z,7.82
2018-03-07T12:48:02.216Z,7.68
2018-03-07T12:50:28.877Z,7.65
2018-03-07T12:52:55.868Z,6.90
2018-03-07T12:55:23.941Z,8.02
2018-03-07T12:57:52.280Z,7.80
2018-03-07T13:00:19.000Z,7.60
2018-03-07T13:02:46.915Z,7.05
2018-03-07T13:05:13.779Z,6.60
2018-03-07T13:07:40.656Z,6.18
2018-03-07T13:10:07.667Z,7.10
2018-03-07T13:12:35.965Z,6.45
2018-03-07T13:15:03.793Z,6.05
2018-03-07T13:17:31.522Z,6.87
2018-03-07T13:19:58.934Z,5.45
2018-03-07T13:22:25.777Z,5.97
2018-03-07T13:24:52.640Z,5.93
2018-03-07T13:27:19.300Z,4.90
2018-03-07T13:29:45.997Z,5.53
2018-03-07T13:32:14.761Z,5.00
2018-03-07T13:34:41.558Z,5.00
2018-03-07T13:37:09.196Z,5.93
2018-03-07T13:39:35.884Z,4.90
2018-03-07T13:42:02.570Z,4.95
2018-03-07T13:44:29.317Z,5.22
2018-03-07T13:46:55.960Z,4.72
2018-03-07T13:49:22.698Z,5.62
2018-03-07T13:51:49.380Z,4.50
2018-03-07T13:54:16.024Z,4.07
2018-03-07T13:56:42.859Z,4.40
2018-03-07T13:59:09.535Z,3.62
2018-03-07T14:01:36.191Z,7.43
2018-03-07T14:04:02.845Z,4.25
2018-03-07T14:06:29.514Z,3.90
2018-03-07T14:08:56.220Z,4.05
2018-03-07T14:11:22.956Z,4.30
2018-03-07T14:13:49.645Z,4.10
2018-03-07T14:16:16.293Z,4.30
2018-03-07T14:18:42.985Z,4.00
2018-03-07T14:21:09.648Z,4.25
2018-03-07T14:23:36.297Z,4.28
2018-03-07T14:26:02.942Z,4.85
2018-03-07T14:28:29.642Z,3.60
2018-03-07T14:30:56.284Z,4.37
2018-03-07T14:33:23.020Z,3.70
2018-03-07T14:35:49.682Z,4.03
2018-03-07T14:38:16.336Z,3.40
2018-03-07T14:40:43.041Z,4.22
2018-03-07T14:43:09.700Z,3.60
2018-03-07T14:45:36.349Z,3.85
2018-03-07T14:48:03.001Z,4.90
2018-03-07T14:50:29.801Z,4.37
2018-03-07T14:52:56.453Z,4.45
2018-03-07T14:55:23.104Z,4.90
2018-03-07T14:57:49.768Z,4.65
2018-03-07T15:00:16.413Z,4.60
2018-03-07T15:02:43.095Z,4.60
2018-03-07T15:05:09.832Z,4.45
2018-03-07T15:07:36.494Z,4.30
2018-03-07T15:10:03.141Z,4.07
2018-03-07T15:12:29.879Z,4.15
2018-03-07T15:14:56.703Z,4.20
2018-03-07T15:17:23.365Z,4.12
2018-03-07T15:19:50.064Z,5.68
2018-03-07T15:22:16.772Z,4.32
2018-03-07T15:24:43.465Z,5.57
2018-03-07T15:27:10.131Z,5.95
2018-03-07T15:29:36.847Z,6.30
2018-03-07T15:32:03.518Z,5.57
2018-03-07T15:34:30.233Z,5.43
2018-03-07T15:36:56.884Z,5.57
2018-03-07T15:39:23.601Z,7.62
2018-03-07T15:41:50.281Z,5.35
2018-03-07T15:44:16.932Z,4.90
2018-03-07T15:46:43.622Z,4.93
2018-03-07T15:49:10.366Z,4.65
2018-03-07T15:51:37.017Z,5.00
2018-03-07T15:54:03.742Z,4.95
2018-03-07T15:56:30.480Z,7.30
2018-03-07T15:58:57.126Z,5.40
2018-03-07T16:01:23.781Z,5.12
2018-03-07T16:03:50.611Z,5.10
2018-03-07T16:06:17.353Z,5.28
2018-03-07T16:08:44.001Z,5.22
2018-03-07T16:11:10.664Z,6.05
2018-03-07T16:13:37.321Z,4.10
2018-03-07T16:16:03.977Z,3.80
2018-03-07T16:18:30.650Z,4.30
2018-03-07T16:20:57.395Z,5.45
2018-03-07T16:23:24.057Z,3.90
2018-03-07T16:25:50.729Z,3.40
2018-03-07T16:28:17.413Z,4.05
2018-03-07T16:30:44.255Z,4.87
2018-03-07T16:33:10.925Z,6.53
2018-03-07T16:35:37.742Z,6.53
2018-03-07T16:38:04.480Z,5.32
2018-03-07T16:40:31.216Z,5.45
2018-03-07T16:42:57.964Z,13.05
2018-03-07T16:45:24.713Z,7.68
2018-03-07T16:47:51.418Z,9.48
2018-03-07T16:50:18.083Z,5.45
2018-03-07T16:52:44.971Z,5.90
2018-03-07T16:55:11.717Z,5.35
2018-03-07T16:57:39.341Z,6.35
2018-03-07T17:00:06.057Z,7.65
2018-03-07T17:02:32.730Z,4.80
2018-03-07T17:04:59.462Z,6.50
2018-03-07T17:07:26.105Z,5.75
2018-03-07T17:09:52.780Z,6.75
2018-03-07T17:12:19.428Z,6.37
2018-03-07T17:14:46.072Z,6.85
2018-03-07T17:17:12.742Z,6.12
2018-03-07T17:19:39.392Z,8.57
2018-03-07T17:22:06.056Z,8.43
2018-03-07T17:24:32.771Z,8.48
2018-03-07T17:26:59.412Z,6.60
2018-03-07T17:29:26.153Z,7.53
2018-03-07T17:31:52.815Z,9.07
2018-03-07T17:34:19.465Z,6.78
2018-03-07T17:36:46.140Z,7.55
2018-03-07T17:39:12.795Z,7.80
2018-03-07T17:41:39.445Z,10.57
2018-03-07T17:44:06.101Z,10.00
2018-03-07T17:46:32.776Z,9.80
2018-03-07T17:48:59.427Z,6.80
2018-03-07T17:51:26.088Z,40.38
2018-03-07T17:53:52.846Z,11.32
2018-03-07T17:56:19.590Z,8.48
2018-03-07T17:58:46.241Z,5.93
2018-03-07T18:01:12.901Z,5.80
2018-03-07T18:03:39.544Z,5.07
2018-03-07T18:06:06.189Z,4.78
2018-03-07T18:08:32.853Z,8.25
2018-03-07T18:10:59.504Z,5.37
2018-03-07T18:13:26.183Z,7.20
2018-03-07T18:15:52.926Z,8.95
2018-03-07T18:18:19.652Z,6.57
2018-03-07T18:20:46.355Z,7.47
2018-03-07T18:23:13.028Z,11.07
2018-03-07T18:25:39.769Z,6.90
2018-03-07T18:28:06.468Z,6.43
2018-03-07T18:30:33.100Z,4.82
2018-03-07T18:32:59.753Z,6.55
2018-03-07T18:35:26.433Z,5.40
2018-03-07T18:37:53.093Z,6.07
2018-03-07T18:40:19.813Z,5.03
2018-03-07T18:42:46.561Z,5.90
2018-03-07T18:45:13.224Z,5.80
2018-03-07T18:47:39.933Z,11.75
2018-03-07T18:50:06.681Z,6.30
2018-03-07T18:52:33.414Z,6.72
2018-03-07T18:55:00.158Z,5.80
2018-03-07T18:57:26.808Z,6.45
2018-03-07T18:59:53.481Z,6.47
2018-03-07T19:02:20.128Z,6.32
2018-03-07T19:04:46.780Z,6.68
2018-03-07T19:07:13.560Z,8.25
2018-03-07T19:09:40.209Z,7.10
2018-03-07T19:12:07.533Z,7.00
2018-03-07T19:14:34.302Z,7.22
2018-03-07T19:17:01.033Z,7.40
2018-03-07T19:19:27.834Z,7.53
2018-03-07T19:21:54.516Z,7.07
2018-03-07T19:24:21.160Z,7.40
2018-03-07T19:26:47.812Z,8.10
2018-03-07T19:29:14.549Z,6.97
2018-03-07T19:31:41.193Z,7.30
2018-03-07T19:34:07.921Z,7.28
2018-03-07T19:36:34.580Z,7.03
2018-03-07T19:39:01.296Z,6.90
2018-03-07T19:41:27.949Z,6.72
2018-03-07T19:43:54.677Z,5.60
2018-03-07T19:46:21.330Z,5.78
2018-03-07T19:48:48.057Z,6.18
2018-03-07T19:51:14.725Z,6.40
2018-03-07T19:53:41.437Z,6.35
2018-03-07T19:56:08.185Z,7.00
2018-03-07T19:58:34.853Z,6.00
2018-03-07T20:01:01.561Z,5.10
2018-03-07T20:03:28.306Z,8.88
2018-03-07T20:05:54.968Z,5.57
2018-03-07T20:08:21.617Z,5.37
2018-03-07T20:10:48.333Z,5.47
2018-03-07T20:13:15.001Z,5.15
2018-03-07T20:15:41.653Z,5.12
2018-03-07T20:18:08.301Z,5.35
2018-03-07T20:20:34.969Z,5.28
2018-03-07T20:23:01.619Z,5.28
2018-03-07T20:25:28.267Z,4.97
2018-03-07T20:27:54.926Z,5.10
2018-03-07T20:30:21.573Z,5.10
2018-03-07T20:32:48.216Z,5.45
2018-03-07T20:35:14.874Z,5.00
2018-03-07T20:37:41.534Z,4.80
2018-03-07T20:40:08.192Z,5.22
2018-03-07T20:42:34.945Z,5.22
2018-03-07T20:45:01.591Z,5.07
2018-03-07T20:47:28.238Z,5.15
2018-03-07T20:49:54.900Z,5.37
2018-03-07T20:52:21.605Z,5.05
2018-03-07T20:54:48.338Z,5.03
2018-03-07T20:57:15.088Z,5.00
2018-03-07T20:59:41.850Z,5.40
2018-03-07T21:02:08.496Z,5.05
2018-03-07T21:04:35.208Z,5.20
2018-03-07T21:07:01.849Z,6.03
2018-03-07T21:09:28.585Z,4.85
2018-03-07T21:11:55.248Z,5.18
2018-03-07T21:14:21.960Z,5.43
2018-03-07T21:16:48.710Z,5.40
2018-03-07T21:19:15.368Z,5.20
2018-03-07T21:21:42.090Z,5.10
2018-03-07T21:24:08.836Z,5.30
2018-03-07T21:26:35.581Z,5.60
2018-03-07T21:29:02.309Z,6.55
2018-03-07T21:31:28.957Z,6.15
2018-03-07T21:33:55.705Z,5.50
2018-03-07T21:36:22.347Z,6.20
2018-03-07T21:38:49.074Z,5.20
2018-03-07T21:41:15.746Z,5.12
2018-03-07T21:43:42.458Z,5.45
2018-03-07T21:46:09.192Z,5.12
2018-03-07T21:48:35.861Z,5.60
2018-03-07T21:51:02.580Z,5.95
2018-03-07T21:53:29.314Z,6.60
2018-03-07T21:55:56.057Z,5.87
2018-03-07T21:58:22.713Z,5.60
2018-03-07T22:00:49.360Z,6.30
2018-03-07T22:03:16.037Z,6.65
2018-03-07T22:05:42.681Z,8.20
2018-03-07T22:08:09.335Z,6.70
2018-03-07T22:10:35.992Z,7.75
2018-03-07T22:13:02.641Z,6.60
2018-03-07T22:15:29.375Z,6.05
2018-03-07T22:17:56.125Z,6.62
2018-03-07T22:20:22.777Z,7.05
2018-03-07T22:22:49.425Z,7.30
2018-03-07T22:25:16.084Z,7.57
2018-03-07T22:27:42.782Z,7.80
2018-03-07T22:30:09.432Z,7.43
2018-03-07T22:32:36.100Z,7.85
2018-03-07T22:35:02.744Z,7.82
2018-03-07T22:37:29.392Z,7.47
2018-03-07T22:39:56.065Z,8.30
2018-03-07T22:42:22.716Z,7.70
2018-03-07T22:44:49.453Z,7.50
2018-03-07T22:47:16.117Z,7.80
2018-03-07T22:49:42.841Z,7.85
2018-03-07T22:52:09.489Z,7.90
2018-03-07T22:54:36.219Z,6.53
2018-03-07T22:57:02.961Z,8.68
2018-03-07T22:59:29.701Z,7.57
2018-03-07T23:01:56.372Z,6.75
2018-03-07T23:04:23.038Z,8.23
2018-03-07T23:06:49.680Z,7.43
2018-03-07T23:09:16.458Z,7.65
2018-03-07T23:11:43.110Z,8.52
2018-03-07T23:14:09.835Z,8.27
2018-03-07T23:16:36.492Z,8.75
2018-03-07T23:19:03.224Z,8.20
2018-03-07T23:21:29.876Z,8.30
2018-03-07T23:23:56.536Z,9.43
2018-03-07T23:26:23.189Z,9.05
2018-03-07T23:28:49.883Z,9.18
2018-03-07T23:31:16.621Z,8.80
2018-03-07T23:33:43.288Z,11.32
2018-03-07T23:36:10.008Z,9.65
2018-03-07T23:38:36.741Z,9.10
2018-03-07T23:41:03.387Z,9.40
2018-03-07T23:43:30.120Z,10.30
2018-03-07T23:45:56.780Z,9.80
2018-03-07T23:48:23.433Z,10.38
2018-03-07T23:50:50.251Z,10.60
2018-03-07T23:53:16.959Z,9.93
2018-03-07T23:55:43.630Z,10.23
2018-03-07T23:58:10.474Z,10.40
